sensor_id;sensor_type;location;lat;lon;timestamp;P1;durP1;ratioP1;P2;durP2;ratioP2
6053;SDS011;3055;50.886;14.814;2023-02-19T00:02:11;3.73;;;2.10;;
6053;SDS011;3055;50.886;14.814;2023-02-19T00:04:38;7.80;;;2.70;;
6053;SDS011;3055;50.886;14.814;2023-02-19T00:07:07;2.57;;;2.33;;
6053;SDS011;3055;50.886;14.814;2023-02-19T00:09:34;2.97;;;2.63;;
6053;SDS011;3055;50.886;14.814;2023-02-19T00:12:01;2.80;;;2.50;;
6053;SDS011;3055;50.886;14.814;2023-02-19T00:14:28;4.30;;;3.17;;
6053;SDS011;3055;50.886;14.814;2023-02-19T00:16:55;3.53;;;2.43;;
6053;SDS011;3055;50.886;14.814;2023-02-19T00:19:22;3.80;;;2.40;;
6053;SDS011;3055;50.886;14.814;2023-02-19T00:21:50;2.23;;;2.10;;
6053;SDS011;3055;50.886;14.814;2023-02-19T00:24:19;3.27;;;2.10;;
6053;SDS011;3055;50.886;14.814;2023-02-19T00:26:47;2.23;;;1.90;;
6053;SDS011;3055;50.886;14.814;2023-02-19T00:29:14;2.33;;;2.13;;
6053;SDS011;3055;50.886;14.814;2023-02-19T00:31:43;1.93;;;1.77;;
6053;SDS011;3055;50.886;14.814;2023-02-19T00:34:11;1.90;;;1.80;;
6053;SDS011;3055;50.886;14.814;2023-02-19T00:36:40;2.03;;;1.60;;
6053;SDS011;3055;50.886;14.814;2023-02-19T00:39:07;1.70;;;1.60;;
6053;SDS011;3055;50.886;14.814;2023-02-19T00:41:39;1.73;;;1.63;;
6053;SDS011;3055;50.886;14.814;2023-02-19T00:44:06;1.70;;;1.60;;
6053;SDS011;3055;50.886;14.814;2023-02-19T00:46:36;1.70;;;1.60;;
6053;SDS011;3055;50.886;14.814;2023-02-19T00:49:05;2.00;;;1.80;;
6053;SDS011;3055;50.886;14.814;2023-02-19T00:51:34;1.80;;;1.70;;
6053;SDS011;3055;50.886;14.814;2023-02-19T00:54:04;2.00;;;1.90;;
6053;SDS011;3055;50.886;14.814;2023-02-19T00:56:31;2.77;;;2.17;;
6053;SDS011;3055;50.886;14.814;2023-02-19T00:59:00;3.10;;;2.30;;
6053;SDS011;3055;50.886;14.814;2023-02-19T01:01:27;3.90;;;2.83;;
6053;SDS011;3055;50.886;14.814;2023-02-19T01:03:54;2.83;;;2.60;;
6053;SDS011;3055;50.886;14.814;2023-02-19T01:06:21;4.37;;;3.00;;
6053;SDS011;3055;50.886;14.814;2023-02-19T01:08:48;4.93;;;3.03;;
6053;SDS011;3055;50.886;14.814;2023-02-19T01:11:16;2.83;;;2.60;;
6053;SDS011;3055;50.886;14.814;2023-02-19T01:13:44;2.57;;;2.37;;
6053;SDS011;3055;50.886;14.814;2023-02-19T01:16:13;3.67;;;3.33;;
6053;SDS011;3055;50.886;14.814;2023-02-19T01:18:42;4.73;;;2.70;;
6053;SDS011;3055;50.886;14.814;2023-02-19T01:21:11;2.93;;;2.70;;
6053;SDS011;3055;50.886;14.814;2023-02-19T01:23:40;3.03;;;2.73;;
6053;SDS011;3055;50.886;14.814;2023-02-19T01:26:09;6.67;;;3.63;;
6053;SDS011;3055;50.886;14.814;2023-02-19T01:28:38;3.63;;;3.33;;
6053;SDS011;3055;50.886;14.814;2023-02-19T01:31:06;3.70;;;3.10;;
6053;SDS011;3055;50.886;14.814;2023-02-19T01:33:37;3.77;;;3.20;;
6053;SDS011;3055;50.886;14.814;2023-02-19T01:36:04;2.97;;;2.73;;
6053;SDS011;3055;50.886;14.814;2023-02-19T01:38:32;3.63;;;2.73;;
6053;SDS011;3055;50.886;14.814;2023-02-19T01:41:00;3.73;;;3.13;;
6053;SDS011;3055;50.886;14.814;2023-02-19T01:43:30;3.50;;;3.20;;
6053;SDS011;3055;50.886;14.814;2023-02-19T01:45:58;3.53;;;3.17;;
6053;SDS011;3055;50.886;14.814;2023-02-19T01:48:26;5.87;;;3.07;;
6053;SDS011;3055;50.886;14.814;2023-02-19T01:50:59;3.80;;;2.90;;
6053;SDS011;3055;50.886;14.814;2023-02-19T01:53:32;3.63;;;2.53;;
6053;SDS011;3055;50.886;14.814;2023-02-19T01:56:02;4.57;;;3.30;;
6053;SDS011;3055;50.886;14.814;2023-02-19T01:58:32;4.33;;;2.47;;
6053;SDS011;3055;50.886;14.814;2023-02-19T02:01:01;3.50;;;2.53;;
6053;SDS011;3055;50.886;14.814;2023-02-19T02:03:31;2.50;;;2.30;;
6053;SDS011;3055;50.886;14.814;2023-02-19T02:06:02;3.23;;;2.40;;
6053;SDS011;3055;50.886;14.814;2023-02-19T02:08:32;3.07;;;2.60;;
6053;SDS011;3055;50.886;14.814;2023-02-19T02:11:17;3.93;;;3.03;;
6053;SDS011;3055;50.886;14.814;2023-02-19T02:13:46;5.43;;;3.10;;
6053;SDS011;3055;50.886;14.814;2023-02-19T02:16:16;8.30;;;3.07;;
6053;SDS011;3055;50.886;14.814;2023-02-19T02:18:54;3.33;;;2.33;;
6053;SDS011;3055;50.886;14.814;2023-02-19T02:21:39;2.80;;;2.57;;
6053;SDS011;3055;50.886;14.814;2023-02-19T02:24:40;8.27;;;3.67;;
6053;SDS011;3055;50.886;14.814;2023-02-19T02:27:38;4.07;;;2.80;;
6053;SDS011;3055;50.886;14.814;2023-02-19T02:30:37;3.93;;;3.30;;
6053;SDS011;3055;50.886;14.814;2023-02-19T02:33:12;3.40;;;3.13;;
6053;SDS011;3055;50.886;14.814;2023-02-19T02:35:46;6.10;;;2.93;;
6053;SDS011;3055;50.886;14.814;2023-02-19T02:38:17;3.30;;;2.80;;
6053;SDS011;3055;50.886;14.814;2023-02-19T02:40:48;2.90;;;2.60;;
6053;SDS011;3055;50.886;14.814;2023-02-19T02:43:16;3.53;;;3.20;;
6053;SDS011;3055;50.886;14.814;2023-02-19T02:45:45;3.57;;;3.10;;
6053;SDS011;3055;50.886;14.814;2023-02-19T02:48:14;4.30;;;3.27;;
6053;SDS011;3055;50.886;14.814;2023-02-19T02:50:47;3.33;;;2.90;;
6053;SDS011;3055;50.886;14.814;2023-02-19T02:53:18;3.73;;;2.97;;
6053;SDS011;3055;50.886;14.814;2023-02-19T02:56:06;3.13;;;2.70;;
6053;SDS011;3055;50.886;14.814;2023-02-19T02:58:35;4.57;;;2.90;;
6053;SDS011;3055;50.886;14.814;2023-02-19T03:01:05;4.27;;;3.07;;
6053;SDS011;3055;50.886;14.814;2023-02-19T03:03:52;3.20;;;2.90;;
6053;SDS011;3055;50.886;14.814;2023-02-19T03:06:23;4.07;;;3.07;;
6053;SDS011;3055;50.886;14.814;2023-02-19T03:08:55;3.37;;;2.77;;
6053;SDS011;3055;50.886;14.814;2023-02-19T03:11:26;3.27;;;2.90;;
6053;SDS011;3055;50.886;14.814;2023-02-19T03:14:14;4.87;;;3.43;;
6053;SDS011;3055;50.886;14.814;2023-02-19T03:17:03;5.17;;;2.67;;
6053;SDS011;3055;50.886;14.814;2023-02-19T03:19:53;3.10;;;2.23;;
6053;SDS011;3055;50.886;14.814;2023-02-19T03:22:23;3.60;;;2.50;;
6053;SDS011;3055;50.886;14.814;2023-02-19T03:24:55;2.83;;;2.63;;
6053;SDS011;3055;50.886;14.814;2023-02-19T03:27:43;2.80;;;2.50;;
6053;SDS011;3055;50.886;14.814;2023-02-19T03:30:14;2.73;;;2.43;;
6053;SDS011;3055;50.886;14.814;2023-02-19T03:32:47;2.43;;;2.17;;
6053;SDS011;3055;50.886;14.814;2023-02-19T03:35:18;2.53;;;2.33;;
6053;SDS011;3055;50.886;14.814;2023-02-19T03:37:49;3.63;;;2.13;;
6053;SDS011;3055;50.886;14.814;2023-02-19T03:40:23;3.00;;;2.30;;
6053;SDS011;3055;50.886;14.814;2023-02-19T03:42:55;2.50;;;2.30;;
6053;SDS011;3055;50.886;14.814;2023-02-19T03:45:32;2.63;;;1.90;;
6053;SDS011;3055;50.886;14.814;2023-02-19T03:48:10;2.13;;;2.03;;
6053;SDS011;3055;50.886;14.814;2023-02-19T03:50:46;1.90;;;1.80;;
6053;SDS011;3055;50.886;14.814;2023-02-19T03:53:22;1.73;;;1.63;;
6053;SDS011;3055;50.886;14.814;2023-02-19T03:55:59;1.70;;;1.60;;
6053;SDS011;3055;50.886;14.814;2023-02-19T03:58:31;1.77;;;1.67;;
6053;SDS011;3055;50.886;14.814;2023-02-19T04:01:05;1.80;;;1.70;;
6053;SDS011;3055;50.886;14.814;2023-02-19T04:03:38;1.77;;;1.50;;
6053;SDS011;3055;50.886;14.814;2023-02-19T04:06:09;1.50;;;1.40;;
6053;SDS011;3055;50.886;14.814;2023-02-19T04:08:39;1.30;;;1.30;;
6053;SDS011;3055;50.886;14.814;2023-02-19T04:11:11;1.40;;;1.30;;
6053;SDS011;3055;50.886;14.814;2023-02-19T04:13:42;1.60;;;1.50;;
6053;SDS011;3055;50.886;14.814;2023-02-19T04:16:13;1.50;;;1.40;;
6053;SDS011;3055;50.886;14.814;2023-02-19T04:18:47;1.93;;;1.40;;
6053;SDS011;3055;50.886;14.814;2023-02-19T04:21:18;1.37;;;1.27;;
6053;SDS011;3055;50.886;14.814;2023-02-19T04:23:47;1.30;;;1.20;;
6053;SDS011;3055;50.886;14.814;2023-02-19T04:26:15;1.30;;;1.30;;
6053;SDS011;3055;50.886;14.814;2023-02-19T04:28:45;2.50;;;1.40;;
6053;SDS011;3055;50.886;14.814;2023-02-19T04:31:12;1.47;;;1.37;;
6053;SDS011;3055;50.886;14.814;2023-02-19T04:33:40;1.30;;;1.20;;
6053;SDS011;3055;50.886;14.814;2023-02-19T04:36:09;1.50;;;1.40;;
6053;SDS011;3055;50.886;14.814;2023-02-19T04:38:37;1.30;;;1.30;;
6053;SDS011;3055;50.886;14.814;2023-02-19T04:41:04;1.30;;;1.30;;
6053;SDS011;3055;50.886;14.814;2023-02-19T04:43:31;1.60;;;1.43;;
6053;SDS011;3055;50.886;14.814;2023-02-19T04:45:59;1.47;;;1.37;;
6053;SDS011;3055;50.886;14.814;2023-02-19T04:48:26;1.20;;;1.20;;
6053;SDS011;3055;50.886;14.814;2023-02-19T04:50:54;2.30;;;1.20;;
6053;SDS011;3055;50.886;14.814;2023-02-19T04:53:22;1.40;;;1.30;;
6053;SDS011;3055;50.886;14.814;2023-02-19T04:55:49;1.50;;;1.40;;
6053;SDS011;3055;50.886;14.814;2023-02-19T04:58:17;1.90;;;1.50;;
6053;SDS011;3055;50.886;14.814;2023-02-19T05:00:46;1.57;;;1.47;;
6053;SDS011;3055;50.886;14.814;2023-02-19T05:03:17;1.40;;;1.40;;
6053;SDS011;3055;50.886;14.814;2023-02-19T05:05:44;1.13;;;1.10;;
6053;SDS011;3055;50.886;14.814;2023-02-19T05:08:11;1.00;;;1.00;;
6053;SDS011;3055;50.886;14.814;2023-02-19T05:10:39;1.20;;;1.10;;
6053;SDS011;3055;50.886;14.814;2023-02-19T05:13:06;1.20;;;1.10;;
6053;SDS011;3055;50.886;14.814;2023-02-19T05:15:34;1.00;;;1.00;;
6053;SDS011;3055;50.886;14.814;2023-02-19T05:18:01;1.60;;;1.30;;
6053;SDS011;3055;50.886;14.814;2023-02-19T05:20:28;1.63;;;1.20;;
6053;SDS011;3055;50.886;14.814;2023-02-19T05:22:55;1.47;;;1.37;;
6053;SDS011;3055;50.886;14.814;2023-02-19T05:25:22;2.17;;;1.20;;
6053;SDS011;3055;50.886;14.814;2023-02-19T05:27:51;1.90;;;1.73;;
6053;SDS011;3055;50.886;14.814;2023-02-19T05:30:39;1.30;;;1.20;;
6053;SDS011;3055;50.886;14.814;2023-02-19T05:33:06;1.33;;;1.10;;
6053;SDS011;3055;50.886;14.814;2023-02-19T05:35:33;2.20;;;1.20;;
6053;SDS011;3055;50.886;14.814;2023-02-19T05:38:04;1.00;;;1.00;;
6053;SDS011;3055;50.886;14.814;2023-02-19T05:40:32;1.40;;;1.30;;
6053;SDS011;3055;50.886;14.814;2023-02-19T05:43:01;1.13;;;1.13;;
6053;SDS011;3055;50.886;14.814;2023-02-19T05:45:28;1.00;;;1.00;;
6053;SDS011;3055;50.886;14.814;2023-02-19T05:47:55;1.03;;;1.03;;
6053;SDS011;3055;50.886;14.814;2023-02-19T05:50:22;1.10;;;1.00;;
6053;SDS011;3055;50.886;14.814;2023-02-19T05:52:49;1.03;;;1.03;;
6053;SDS011;3055;50.886;14.814;2023-02-19T05:55:16;1.20;;;1.10;;
6053;SDS011;3055;50.886;14.814;2023-02-19T05:57:44;1.00;;;1.00;;
6053;SDS011;3055;50.886;14.814;2023-02-19T06:00:15;2.30;;;1.20;;
6053;SDS011;3055;50.886;14.814;2023-02-19T06:02:44;1.10;;;1.10;;
6053;SDS011;3055;50.886;14.814;2023-02-19T06:05:11;3.13;;;1.20;;
6053;SDS011;3055;50.886;14.814;2023-02-19T06:07:39;1.30;;;1.20;;
6053;SDS011;3055;50.886;14.814;2023-02-19T06:10:07;1.13;;;1.13;;
6053;SDS011;3055;50.886;14.814;2023-02-19T06:12:35;1.37;;;1.27;;
6053;SDS011;3055;50.886;14.814;2023-02-19T06:15:02;1.50;;;1.40;;
6053;SDS011;3055;50.886;14.814;2023-02-19T06:17:32;2.80;;;1.87;;
6053;SDS011;3055;50.886;14.814;2023-02-19T06:19:59;1.60;;;1.50;;
6053;SDS011;3055;50.886;14.814;2023-02-19T06:22:27;2.00;;;1.70;;
6053;SDS011;3055;50.886;14.814;2023-02-19T06:24:54;1.10;;;1.10;;
6053;SDS011;3055;50.886;14.814;2023-02-19T06:27:21;1.80;;;1.30;;
6053;SDS011;3055;50.886;14.814;2023-02-19T06:29:48;1.10;;;1.10;;
6053;SDS011;3055;50.886;14.814;2023-02-19T06:32:15;1.00;;;0.90;;
6053;SDS011;3055;50.886;14.814;2023-02-19T06:34:44;0.93;;;0.93;;
6053;SDS011;3055;50.886;14.814;2023-02-19T06:37:11;1.23;;;1.23;;
6053;SDS011;3055;50.886;14.814;2023-02-19T06:39:38;1.87;;;1.20;;
6053;SDS011;3055;50.886;14.814;2023-02-19T06:42:05;1.33;;;1.23;;
6053;SDS011;3055;50.886;14.814;2023-02-19T06:44:32;1.80;;;1.70;;
6053;SDS011;3055;50.886;14.814;2023-02-19T06:46:59;1.40;;;1.33;;
6053;SDS011;3055;50.886;14.814;2023-02-19T06:49:26;1.20;;;1.20;;
6053;SDS011;3055;50.886;14.814;2023-02-19T06:51:55;1.43;;;1.33;;
6053;SDS011;3055;50.886;14.814;2023-02-19T06:54:24;1.60;;;1.50;;
6053;SDS011;3055;50.886;14.814;2023-02-19T06:56:51;1.50;;;1.40;;
6053;SDS011;3055;50.886;14.814;2023-02-19T06:59:21;1.73;;;1.63;;
6053;SDS011;3055;50.886;14.814;2023-02-19T07:01:48;2.17;;;2.07;;
6053;SDS011;3055;50.886;14.814;2023-02-19T07:04:15;1.90;;;1.80;;
6053;SDS011;3055;50.886;14.814;2023-02-19T07:06:42;5.80;;;5.40;;
6053;SDS011;3055;50.886;14.814;2023-02-19T07:09:10;1.80;;;1.70;;
6053;SDS011;3055;50.886;14.814;2023-02-19T07:11:38;1.60;;;1.50;;
6053;SDS011;3055;50.886;14.814;2023-02-19T07:14:06;1.60;;;1.50;;
6053;SDS011;3055;50.886;14.814;2023-02-19T07:16:33;1.00;;;1.00;;
6053;SDS011;3055;50.886;14.814;2023-02-19T07:19:01;1.27;;;1.23;;
6053;SDS011;3055;50.886;14.814;2023-02-19T07:21:28;1.20;;;1.10;;
6053;SDS011;3055;50.886;14.814;2023-02-19T07:23:55;1.37;;;1.27;;
6053;SDS011;3055;50.886;14.814;2023-02-19T07:26:24;1.50;;;1.40;;
6053;SDS011;3055;50.886;14.814;2023-02-19T07:28:51;1.20;;;1.20;;
6053;SDS011;3055;50.886;14.814;2023-02-19T07:31:19;1.50;;;1.40;;
6053;SDS011;3055;50.886;14.814;2023-02-19T07:33:48;1.40;;;1.30;;
6053;SDS011;3055;50.886;14.814;2023-02-19T07:36:15;1.93;;;1.30;;
6053;SDS011;3055;50.886;14.814;2023-02-19T07:38:43;1.40;;;1.30;;
6053;SDS011;3055;50.886;14.814;2023-02-19T07:41:10;1.13;;;1.03;;
6053;SDS011;3055;50.886;14.814;2023-02-19T07:43:39;1.00;;;1.00;;
6053;SDS011;3055;50.886;14.814;2023-02-19T07:46:07;0.97;;;0.97;;
6053;SDS011;3055;50.886;14.814;2023-02-19T07:48:35;1.20;;;1.20;;
6053;SDS011;3055;50.886;14.814;2023-02-19T07:51:03;1.10;;;1.10;;
6053;SDS011;3055;50.886;14.814;2023-02-19T07:53:31;1.20;;;1.20;;
6053;SDS011;3055;50.886;14.814;2023-02-19T07:55:59;2.90;;;2.60;;
6053;SDS011;3055;50.886;14.814;2023-02-19T07:58:27;2.50;;;2.30;;
6053;SDS011;3055;50.886;14.814;2023-02-19T08:00:56;4.30;;;4.00;;
6053;SDS011;3055;50.886;14.814;2023-02-19T08:03:31;1.60;;;1.60;;
6053;SDS011;3055;50.886;14.814;2023-02-19T08:05:57;1.50;;;1.50;;
6053;SDS011;3055;50.886;14.814;2023-02-19T08:08:24;1.70;;;1.50;;
6053;SDS011;3055;50.886;14.814;2023-02-19T08:10:51;2.50;;;2.30;;
6053;SDS011;3055;50.886;14.814;2023-02-19T08:13:35;2.07;;;1.87;;
6053;SDS011;3055;50.886;14.814;2023-02-19T08:16:11;1.73;;;1.63;;
6053;SDS011;3055;50.886;14.814;2023-02-19T08:18:40;1.70;;;1.60;;
6053;SDS011;3055;50.886;14.814;2023-02-19T08:21:07;2.00;;;1.90;;
6053;SDS011;3055;50.886;14.814;2023-02-19T08:23:34;2.20;;;2.10;;
6053;SDS011;3055;50.886;14.814;2023-02-19T08:26:02;2.10;;;2.00;;
6053;SDS011;3055;50.886;14.814;2023-02-19T08:28:30;1.90;;;1.80;;
6053;SDS011;3055;50.886;14.814;2023-02-19T08:30:58;2.80;;;2.60;;
6053;SDS011;3055;50.886;14.814;2023-02-19T08:33:27;1.40;;;1.40;;
6053;SDS011;3055;50.886;14.814;2023-02-19T08:35:55;1.83;;;1.70;;
6053;SDS011;3055;50.886;14.814;2023-02-19T08:38:28;2.10;;;2.00;;
6053;SDS011;3055;50.886;14.814;2023-02-19T08:40:55;2.80;;;2.60;;
6053;SDS011;3055;50.886;14.814;2023-02-19T08:43:23;2.17;;;2.07;;
6053;SDS011;3055;50.886;14.814;2023-02-19T08:45:51;2.33;;;2.13;;
6053;SDS011;3055;50.886;14.814;2023-02-19T08:48:18;2.33;;;2.23;;
6053;SDS011;3055;50.886;14.814;2023-02-19T08:50:53;2.50;;;2.30;;
6053;SDS011;3055;50.886;14.814;2023-02-19T08:53:21;2.40;;;2.30;;
6053;SDS011;3055;50.886;14.814;2023-02-19T08:55:48;2.83;;;2.63;;
6053;SDS011;3055;50.886;14.814;2023-02-19T08:58:15;2.53;;;2.33;;
6053;SDS011;3055;50.886;14.814;2023-02-19T09:00:42;2.40;;;2.20;;
6053;SDS011;3055;50.886;14.814;2023-02-19T09:03:09;2.93;;;2.73;;
6053;SDS011;3055;50.886;14.814;2023-02-19T09:05:37;2.57;;;2.30;;
6053;SDS011;3055;50.886;14.814;2023-02-19T09:08:05;2.40;;;2.30;;
6053;SDS011;3055;50.886;14.814;2023-02-19T09:10:32;2.43;;;2.33;;
6053;SDS011;3055;50.886;14.814;2023-02-19T09:12:59;3.40;;;3.20;;
6053;SDS011;3055;50.886;14.814;2023-02-19T09:15:27;3.43;;;3.13;;
6053;SDS011;3055;50.886;14.814;2023-02-19T09:17:54;3.07;;;2.87;;
6053;SDS011;3055;50.886;14.814;2023-02-19T09:20:22;2.90;;;2.70;;
6053;SDS011;3055;50.886;14.814;2023-02-19T09:22:49;2.97;;;2.73;;
6053;SDS011;3055;50.886;14.814;2023-02-19T09:25:22;3.10;;;2.90;;
6053;SDS011;3055;50.886;14.814;2023-02-19T09:27:52;3.60;;;3.03;;
6053;SDS011;3055;50.886;14.814;2023-02-19T09:30:20;2.83;;;2.63;;
6053;SDS011;3055;50.886;14.814;2023-02-19T09:32:47;3.20;;;3.00;;
6053;SDS011;3055;50.886;14.814;2023-02-19T09:35:14;2.63;;;2.20;;
6053;SDS011;3055;50.886;14.814;2023-02-19T09:37:41;2.20;;;2.10;;
6053;SDS011;3055;50.886;14.814;2023-02-19T09:40:09;2.60;;;2.40;;
6053;SDS011;3055;50.886;14.814;2023-02-19T09:42:37;2.10;;;2.00;;
6053;SDS011;3055;50.886;14.814;2023-02-19T09:45:09;2.10;;;2.00;;
6053;SDS011;3055;50.886;14.814;2023-02-19T09:47:44;1.90;;;1.80;;
6053;SDS011;3055;50.886;14.814;2023-02-19T09:50:13;1.80;;;1.70;;
6053;SDS011;3055;50.886;14.814;2023-02-19T09:52:44;2.40;;;2.20;;
6053;SDS011;3055;50.886;14.814;2023-02-19T09:55:15;2.90;;;2.70;;
6053;SDS011;3055;50.886;14.814;2023-02-19T09:57:50;2.23;;;2.13;;
6053;SDS011;3055;50.886;14.814;2023-02-19T10:00:19;2.70;;;2.50;;
6053;SDS011;3055;50.886;14.814;2023-02-19T10:02:52;2.50;;;2.40;;
6053;SDS011;3055;50.886;14.814;2023-02-19T10:05:20;2.97;;;2.50;;
6053;SDS011;3055;50.886;14.814;2023-02-19T10:07:50;2.80;;;2.60;;
6053;SDS011;3055;50.886;14.814;2023-02-19T10:10:23;2.60;;;2.40;;
6053;SDS011;3055;50.886;14.814;2023-02-19T10:13:04;2.47;;;2.37;;
6053;SDS011;3055;50.886;14.814;2023-02-19T10:15:40;2.53;;;2.33;;
6053;SDS011;3055;50.886;14.814;2023-02-19T10:18:11;2.50;;;2.30;;
6053;SDS011;3055;50.886;14.814;2023-02-19T10:20:41;5.03;;;4.63;;
6053;SDS011;3055;50.886;14.814;2023-02-19T10:23:09;7.23;;;6.63;;
6053;SDS011;3055;50.886;14.814;2023-02-19T10:25:39;6.37;;;5.77;;
6053;SDS011;3055;50.886;14.814;2023-02-19T10:28:12;2.97;;;2.53;;
6053;SDS011;3055;50.886;14.814;2023-02-19T10:30:42;2.40;;;2.20;;
6053;SDS011;3055;50.886;14.814;2023-02-19T10:33:11;2.10;;;2.00;;
6053;SDS011;3055;50.886;14.814;2023-02-19T10:35:50;2.40;;;2.30;;
6053;SDS011;3055;50.886;14.814;2023-02-19T10:38:20;3.50;;;2.77;;
6053;SDS011;3055;50.886;14.814;2023-02-19T10:40:55;2.23;;;2.13;;
6053;SDS011;3055;50.886;14.814;2023-02-19T10:43:27;3.20;;;3.00;;
6053;SDS011;3055;50.886;14.814;2023-02-19T10:45:58;2.67;;;2.47;;
6053;SDS011;3055;50.886;14.814;2023-02-19T10:48:29;3.00;;;2.40;;
6053;SDS011;3055;50.886;14.814;2023-02-19T10:51:00;2.67;;;2.47;;
6053;SDS011;3055;50.886;14.814;2023-02-19T10:53:36;2.73;;;2.53;;
6053;SDS011;3055;50.886;14.814;2023-02-19T10:56:09;3.10;;;2.90;;
6053;SDS011;3055;50.886;14.814;2023-02-19T10:58:40;2.70;;;2.50;;
6053;SDS011;3055;50.886;14.814;2023-02-19T11:01:13;2.60;;;2.40;;
6053;SDS011;3055;50.886;14.814;2023-02-19T11:03:43;1.70;;;1.60;;
6053;SDS011;3055;50.886;14.814;2023-02-19T11:06:11;2.90;;;1.70;;
6053;SDS011;3055;50.886;14.814;2023-02-19T11:08:47;2.13;;;1.90;;
6053;SDS011;3055;50.886;14.814;2023-02-19T11:11:23;2.27;;;2.07;;
6053;SDS011;3055;50.886;14.814;2023-02-19T11:13:53;2.50;;;2.30;;
6053;SDS011;3055;50.886;14.814;2023-02-19T11:16:22;3.10;;;2.47;;
6053;SDS011;3055;50.886;14.814;2023-02-19T11:18:53;2.60;;;2.40;;
6053;SDS011;3055;50.886;14.814;2023-02-19T11:21:23;2.57;;;2.37;;
6053;SDS011;3055;50.886;14.814;2023-02-19T11:23:57;3.90;;;2.50;;
6053;SDS011;3055;50.886;14.814;2023-02-19T11:26:26;2.90;;;2.70;;
6053;SDS011;3055;50.886;14.814;2023-02-19T11:29:01;2.80;;;2.50;;
6053;SDS011;3055;50.886;14.814;2023-02-19T11:31:41;2.90;;;2.70;;
6053;SDS011;3055;50.886;14.814;2023-02-19T11:34:22;3.00;;;2.80;;
6053;SDS011;3055;50.886;14.814;2023-02-19T11:37:06;3.47;;;3.17;;
6053;SDS011;3055;50.886;14.814;2023-02-19T11:39:35;2.97;;;2.77;;
6053;SDS011;3055;50.886;14.814;2023-02-19T11:44:57;3.10;;;2.80;;
6053;SDS011;3055;50.886;14.814;2023-02-19T11:47:44;2.83;;;2.50;;
6053;SDS011;3055;50.886;14.814;2023-02-19T11:50:45;3.13;;;2.87;;
6053;SDS011;3055;50.886;14.814;2023-02-19T11:53:20;2.73;;;2.53;;
6053;SDS011;3055;50.886;14.814;2023-02-19T11:55:55;3.00;;;2.80;;
6053;SDS011;3055;50.886;14.814;2023-02-19T11:58:54;2.87;;;2.67;;
6053;SDS011;3055;50.886;14.814;2023-02-19T12:01:33;3.30;;;3.00;;
6053;SDS011;3055;50.886;14.814;2023-02-19T12:07:20;3.20;;;2.30;;
6053;SDS011;3055;50.886;14.814;2023-02-19T12:09:58;2.60;;;2.40;;
6053;SDS011;3055;50.886;14.814;2023-02-19T12:12:40;2.13;;;2.00;;
6053;SDS011;3055;50.886;14.814;2023-02-19T12:15:22;1.90;;;1.80;;
6053;SDS011;3055;50.886;14.814;2023-02-19T12:18:09;1.70;;;1.60;;
6053;SDS011;3055;50.886;14.814;2023-02-19T12:20:54;2.03;;;1.80;;
6053;SDS011;3055;50.886;14.814;2023-02-19T12:23:37;2.10;;;2.00;;
6053;SDS011;3055;50.886;14.814;2023-02-19T12:26:21;2.57;;;2.37;;
6053;SDS011;3055;50.886;14.814;2023-02-19T12:32:07;3.23;;;1.60;;
6053;SDS011;3055;50.886;14.814;2023-02-19T12:37:46;1.77;;;1.67;;
6053;SDS011;3055;50.886;14.814;2023-02-19T12:40:24;1.77;;;1.67;;
6053;SDS011;3055;50.886;14.814;2023-02-19T12:43:02;1.67;;;1.40;;
6053;SDS011;3055;50.886;14.814;2023-02-19T12:45:38;2.30;;;1.60;;
6053;SDS011;3055;50.886;14.814;2023-02-19T12:48:11;2.13;;;1.90;;
6053;SDS011;3055;50.886;14.814;2023-02-19T12:50:46;2.97;;;2.13;;
6053;SDS011;3055;50.886;14.814;2023-02-19T12:53:26;3.17;;;2.33;;
6053;SDS011;3055;50.886;14.814;2023-02-19T12:56:09;3.43;;;2.17;;
6053;SDS011;3055;50.886;14.814;2023-02-19T12:58:43;2.97;;;1.90;;
6053;SDS011;3055;50.886;14.814;2023-02-19T13:01:14;4.10;;;1.97;;
6053;SDS011;3055;50.886;14.814;2023-02-19T13:03:46;3.07;;;1.80;;
6053;SDS011;3055;50.886;14.814;2023-02-19T13:06:23;2.30;;;1.67;;
6053;SDS011;3055;50.886;14.814;2023-02-19T13:08:59;2.63;;;2.07;;
6053;SDS011;3055;50.886;14.814;2023-02-19T13:11:33;4.33;;;2.20;;
6053;SDS011;3055;50.886;14.814;2023-02-19T13:14:04;4.47;;;2.00;;
6053;SDS011;3055;50.886;14.814;2023-02-19T13:16:38;1.50;;;1.40;;
6053;SDS011;3055;50.886;14.814;2023-02-19T13:19:08;4.93;;;2.30;;
6053;SDS011;3055;50.886;14.814;2023-02-19T13:21:40;2.80;;;1.90;;
6053;SDS011;3055;50.886;14.814;2023-02-19T13:24:27;5.77;;;4.00;;
6053;SDS011;3055;50.886;14.814;2023-02-19T13:27:03;7.03;;;3.53;;
6053;SDS011;3055;50.886;14.814;2023-02-19T13:29:51;2.23;;;1.70;;
6053;SDS011;3055;50.886;14.814;2023-02-19T13:32:36;3.60;;;2.77;;
6053;SDS011;3055;50.886;14.814;2023-02-19T13:35:24;2.73;;;2.40;;
6053;SDS011;3055;50.886;14.814;2023-02-19T13:38:02;3.30;;;1.70;;
6053;SDS011;3055;50.886;14.814;2023-02-19T13:40:32;2.43;;;1.97;;
6053;SDS011;3055;50.886;14.814;2023-02-19T13:43:01;4.03;;;2.70;;
6053;SDS011;3055;50.886;14.814;2023-02-19T13:45:31;2.17;;;1.97;;
6053;SDS011;3055;50.886;14.814;2023-02-19T13:48:12;5.33;;;2.20;;
6053;SDS011;3055;50.886;14.814;2023-02-19T13:50:40;3.50;;;2.50;;
6053;SDS011;3055;50.886;14.814;2023-02-19T13:59:12;3.17;;;2.33;;
6053;SDS011;3055;50.886;14.814;2023-02-19T14:05:02;2.20;;;1.73;;
6053;SDS011;3055;50.886;14.814;2023-02-19T14:07:36;5.17;;;2.27;;
6053;SDS011;3055;50.886;14.814;2023-02-19T14:19:45;3.43;;;1.30;;
6053;SDS011;3055;50.886;14.814;2023-02-19T14:25:19;5.57;;;4.13;;
6053;SDS011;3055;50.886;14.814;2023-02-19T14:28:15;3.10;;;2.50;;
6053;SDS011;3055;50.886;14.814;2023-02-19T14:30:47;2.47;;;2.27;;
6053;SDS011;3055;50.886;14.814;2023-02-19T14:33:18;2.43;;;1.53;;
6053;SDS011;3055;50.886;14.814;2023-02-19T14:35:50;3.27;;;2.47;;
6053;SDS011;3055;50.886;14.814;2023-02-19T14:38:20;2.23;;;1.87;;
6053;SDS011;3055;50.886;14.814;2023-02-19T14:40:50;6.43;;;1.97;;
6053;SDS011;3055;50.886;14.814;2023-02-19T14:43:20;2.00;;;1.60;;
6053;SDS011;3055;50.886;14.814;2023-02-19T14:45:49;4.87;;;2.27;;
6053;SDS011;3055;50.886;14.814;2023-02-19T14:48:24;2.10;;;1.90;;
6053;SDS011;3055;50.886;14.814;2023-02-19T14:50:56;2.77;;;2.20;;
6053;SDS011;3055;50.886;14.814;2023-02-19T14:53:28;2.77;;;1.70;;
6053;SDS011;3055;50.886;14.814;2023-02-19T14:55:58;5.17;;;1.70;;
6053;SDS011;3055;50.886;14.814;2023-02-19T14:58:27;3.43;;;1.50;;
6053;SDS011;3055;50.886;14.814;2023-02-19T15:00:56;4.93;;;2.23;;
6053;SDS011;3055;50.886;14.814;2023-02-19T15:03:26;2.70;;;1.50;;
6053;SDS011;3055;50.886;14.814;2023-02-19T15:05:59;1.93;;;1.60;;
6053;SDS011;3055;50.886;14.814;2023-02-19T15:08:31;1.97;;;1.70;;
6053;SDS011;3055;50.886;14.814;2023-02-19T15:11:01;3.67;;;1.50;;
6053;SDS011;3055;50.886;14.814;2023-02-19T15:13:33;4.73;;;1.50;;
6053;SDS011;3055;50.886;14.814;2023-02-19T15:16:00;2.93;;;1.67;;
6053;SDS011;3055;50.886;14.814;2023-02-19T15:18:29;1.80;;;1.57;;
6053;SDS011;3055;50.886;14.814;2023-02-19T15:21:01;3.57;;;1.80;;
6053;SDS011;3055;50.886;14.814;2023-02-19T15:23:30;4.50;;;1.93;;
6053;SDS011;3055;50.886;14.814;2023-02-19T15:26:00;3.93;;;2.30;;
6053;SDS011;3055;50.886;14.814;2023-02-19T15:28:29;3.23;;;2.73;;
6053;SDS011;3055;50.886;14.814;2023-02-19T15:31:05;3.87;;;2.20;;
6053;SDS011;3055;50.886;14.814;2023-02-19T15:33:38;6.30;;;3.07;;
6053;SDS011;3055;50.886;14.814;2023-02-19T15:36:06;4.43;;;3.00;;
6053;SDS011;3055;50.886;14.814;2023-02-19T15:38:34;3.43;;;2.50;;
6053;SDS011;3055;50.886;14.814;2023-02-19T15:41:02;2.90;;;2.00;;
6053;SDS011;3055;50.886;14.814;2023-02-19T15:43:30;3.37;;;1.90;;
6053;SDS011;3055;50.886;14.814;2023-02-19T15:46:09;4.53;;;1.63;;
6053;SDS011;3055;50.886;14.814;2023-02-19T15:48:43;3.00;;;2.03;;
6053;SDS011;3055;50.886;14.814;2023-02-19T15:51:14;2.67;;;1.90;;
6053;SDS011;3055;50.886;14.814;2023-02-19T15:53:46;3.87;;;2.00;;
6053;SDS011;3055;50.886;14.814;2023-02-19T15:56:17;2.67;;;1.90;;
6053;SDS011;3055;50.886;14.814;2023-02-19T15:58:52;4.47;;;2.30;;
6053;SDS011;3055;50.886;14.814;2023-02-19T16:01:24;2.63;;;1.90;;